Aérodrome :
LOGIN :

S'inscrire | Disclaimer

   EN    FR    IT 

 










Légende :    VFR   VFR Marginal   IFR   IFR Intensif   IFR Très Intensif
Visi : 
Plafond : 
>= 8 km
>= 3000ft
5 à 8 km
1000 à 3000 ft
1500m à 5 km
500 à 1000 ft
800 à 1500m
200 à 500 ft
< 800m
< 200 ft
Symboles :   Orages  Brouillard  Fortes neiges  Fortes précipitations  Vent > 20 kt
SIGMETs :   Divers  Orages  Givrage  Turbulence  Onde Orograph.  Cendres Volcan.







- Altitude de l'aérodrome : 144 ft
- Code IATA : PGF
- Voir les cartes d'approche


LFMP - Perpignan

DERNIER METAR :
  • 230130Z AUTO 00000KT CAVOK 13/12 Q1017

METARs EXPIRÉS :
  • 230100Z AUTO 00000KT 9999 NCD 14/12 Q1017
  • 230030Z AUTO 31001KT 9999 NCD 14/13 Q1018
  • 230000Z AUTO 26002KT 9999 NCD 14/13 Q1018
  • 222330Z AUTO 23005KT 9999 NCD 15/13 Q1018
  • 222300Z AUTO 24004KT 9999 NCD 15/13 Q1018

TAF TAF LFMP
Valide du 22 à 15h jusqu'au 23 à 15h UTC


221400Z 2215/2315 VRB02KT CAVOK
TEMPO 2215/2218 08012KT
TEMPO 2219/2306 1200 BR BKN013
TEMPO 2311/2315 10012KT
PROB30
TEMPO 2313/2315 VRB15G25KT SHRA BKN050TCU
ATIS : +33 4 68 63 75 12
Pas de NOTAMs connus pour ce terrain.



MET'MAP, la Météo Aéronautique d'un coup d'oeil ! - Copyright ORBIFLY Décembre 2007 - Disclaimer

ORBIFLY MET'MAP TEAM :

Programmation & Développement : Alexandra Zaïnal
Conception & Développement : Baudouin d'Aumeries
Co-Programmation & Développement : Marc-Olivier Méhu
Soutien technique & logistique : Manuel Goepfert

Contact : metmap@orbifly.com




SOURCES & CREDITS :

   NOAA